createdAt,value
2022-12-14T00:02:03.095Z,99277.75
2022-12-14T00:07:04.888Z,99274.88
2022-12-14T00:12:08.788Z,99265.50
2022-12-14T00:17:10.504Z,99261.47
2022-12-14T00:22:12.205Z,99247.97
2022-12-14T00:27:13.866Z,99253.94
2022-12-14T00:32:15.514Z,99245.56
2022-12-14T00:37:17.155Z,99244.31
2022-12-14T00:42:18.808Z,99251.50
2022-12-14T00:47:20.433Z,99246.41
2022-12-14T00:52:22.107Z,99233.72
2022-12-14T00:57:23.834Z,99242.97
2022-12-14T01:02:25.662Z,99249.88
2022-12-14T01:07:27.478Z,99250.63
2022-12-14T01:12:29.264Z,99245.00
2022-12-14T01:17:30.904Z,99232.81
2022-12-14T01:22:32.609Z,99219.31
2022-12-14T01:27:34.359Z,99213.34
2022-12-14T01:32:36.054Z,99209.22
2022-12-14T01:37:37.731Z,99210.53
2022-12-14T01:42:39.432Z,99198.88
2022-12-14T01:47:44.339Z,99194.50
2022-12-14T01:52:49.531Z,99197.22
2022-12-14T01:57:57.144Z,99199.34
2022-12-14T02:03:07.753Z,99197.06
2022-12-14T02:08:09.847Z,99202.94
2022-12-14T02:13:22.859Z,99202.72
2022-12-14T02:18:27.586Z,99198.25
2022-12-14T02:23:50.528Z,99198.72
2022-12-14T02:29:10.771Z,99187.16
2022-12-14T02:34:45.555Z,99181.63
2022-12-14T02:40:07.374Z,99181.78
2022-12-14T02:45:32.180Z,99185.97
2022-12-14T02:50:37.885Z,99172.41
2022-12-14T02:55:46.073Z,99174.28
2022-12-14T03:00:49.463Z,99171.34
2022-12-14T03:05:59.626Z,99165.88
2022-12-14T03:11:06.623Z,99160.25
2022-12-14T03:16:16.742Z,99140.63
2022-12-14T03:21:24.589Z,99145.13
2022-12-14T03:26:45.621Z,99134.69
2022-12-14T03:31:55.067Z,99128.03
2022-12-14T03:37:11.814Z,99119.00
2022-12-14T03:42:23.574Z,99120.66
2022-12-14T03:47:40.040Z,99114.44
2022-12-14T03:52:56.923Z,99111.84
2022-12-14T03:58:39.318Z,99103.53
2022-12-14T04:03:51.428Z,99099.06
2022-12-14T04:09:12.223Z,99089.97
2022-12-14T04:14:38.232Z,99091.69
2022-12-14T04:19:50.878Z,99097.66
2022-12-14T04:25:34.583Z,99086.28
2022-12-14T04:30:39.535Z,99081.31
2022-12-14T04:35:42.516Z,99066.94
2022-12-14T04:40:58.899Z,99058.00
2022-12-14T04:46:14.926Z,99056.22
2022-12-14T04:51:33.698Z,99046.31
2022-12-14T04:56:53.161Z,99039.28
2022-12-14T05:01:54.856Z,99040.25
2022-12-14T05:07:17.592Z,99025.78
2022-12-14T05:12:34.158Z,99008.78
2022-12-14T05:17:40.560Z,99004.44
2022-12-14T05:22:43.963Z,99004.44
2022-12-14T05:27:46.630Z,98998.25
2022-12-14T05:32:48.539Z,98996.75
2022-12-14T05:37:50.226Z,98990.88
2022-12-14T05:42:55.750Z,98987.22
2022-12-14T05:47:57.720Z,98977.91
2022-12-14T05:52:59.346Z,98962.13
2022-12-14T05:58:01.479Z,98961.16
2022-12-14T06:03:03.177Z,98959.25
2022-12-14T06:08:05.059Z,98945.78
2022-12-14T06:13:06.767Z,98947.53
2022-12-14T06:18:08.471Z,98944.44
2022-12-14T06:23:10.288Z,98954.50
2022-12-14T06:28:11.975Z,98953.00
2022-12-14T06:33:13.956Z,98942.66
2022-12-14T06:38:16.491Z,98937.25
2022-12-14T06:43:18.274Z,98938.81
2022-12-14T06:48:20.119Z,98928.16
2022-12-14T06:53:21.873Z,98931.84
2022-12-14T06:58:25.756Z,98923.53
2022-12-14T07:03:32.108Z,98910.53
2022-12-14T07:08:36.281Z,98912.28
2022-12-14T07:13:39.086Z,98917.41
2022-12-14T07:18:40.735Z,98911.56
2022-12-14T07:23:43.861Z,98907.38
2022-12-14T07:28:45.762Z,98897.69
2022-12-14T07:33:47.870Z,98891.13
2022-12-14T07:38:50.720Z,98885.31
2022-12-14T07:43:54.727Z,98885.50
2022-12-14T07:48:57.794Z,98889.81
2022-12-14T07:54:01.774Z,98875.97
2022-12-14T07:59:06.675Z,98869.22
2022-12-14T08:04:14.970Z,98860.81
2022-12-14T08:09:17.515Z,98848.94
2022-12-14T08:14:19.365Z,98849.63
2022-12-14T08:19:21.193Z,98851.53
2022-12-14T08:24:22.913Z,98832.88
2022-12-14T08:29:24.606Z,98831.91
2022-12-14T08:34:26.183Z,98824.41
2022-12-14T08:39:27.842Z,98825.31
2022-12-14T08:44:29.471Z,98827.94
2022-12-14T08:49:32.582Z,98813.31
2022-12-14T08:54:35.477Z,98801.47
2022-12-14T09:00:00.697Z,98782.78
2022-12-14T09:04:58.808Z,98781.97
2022-12-14T09:10:00.441Z,98764.88
2022-12-14T09:15:02.283Z,98772.66
2022-12-14T09:20:04.987Z,98763.25
2022-12-14T09:25:06.957Z,98749.53
2022-12-14T09:30:08.969Z,98741.84
2022-12-14T09:35:10.607Z,98736.75
2022-12-14T09:40:13.645Z,98733.31
2022-12-14T09:45:24.246Z,98724.75
2022-12-14T09:50:27.155Z,98706.81
2022-12-14T09:55:43.417Z,98700.81
2022-12-14T10:00:53.556Z,98689.69
2022-12-14T10:06:11.553Z,98670.84
2022-12-14T10:11:31.349Z,98664.81
2022-12-14T10:16:56.708Z,98670.81
2022-12-14T10:22:06.875Z,98665.66
2022-12-14T10:27:11.514Z,98666.50
2022-12-14T10:32:29.663Z,98645.78
2022-12-14T10:37:42.637Z,98635.50
2022-12-14T10:42:44.239Z,98636.25
2022-12-14T10:47:56.999Z,98634.56
2022-12-14T10:53:00.017Z,98626.03
2022-12-14T10:58:01.783Z,98633.72
2022-12-14T11:03:06.884Z,98615.59
2022-12-14T11:08:10.454Z,98611.38
2022-12-14T11:13:20.980Z,98618.19
2022-12-14T11:18:31.176Z,98610.50
2022-12-14T11:23:47.362Z,98607.03
2022-12-14T11:28:52.290Z,98597.53
2022-12-14T11:33:56.882Z,98587.97
2022-12-14T11:39:01.203Z,98583.13
2022-12-14T11:44:15.484Z,98579.72
2022-12-14T11:49:35.132Z,98574.44
2022-12-14T11:54:39.932Z,98567.47
2022-12-14T11:59:51.024Z,98580.53
2022-12-14T12:05:04.832Z,98567.59
2022-12-14T12:10:09.517Z,98567.50
2022-12-14T12:15:17.468Z,98560.75
2022-12-14T12:20:53.698Z,98556.41
2022-12-14T12:25:58.613Z,98555.47
2022-12-14T12:31:10.654Z,98538.25
2022-12-14T12:36:20.449Z,98546.16
2022-12-14T12:41:44.627Z,98534.84
2022-12-14T12:47:23.426Z,98525.56
2022-12-14T12:52:28.082Z,98524.59
2022-12-14T12:57:42.092Z,98536.72
2022-12-14T13:02:50.374Z,98534.13
2022-12-14T13:07:57.424Z,98530.75
2022-12-14T13:13:17.028Z,98525.53
2022-12-14T13:18:56.051Z,98527.38
2022-12-14T13:23:47.333Z,98517.06
2022-12-14T13:29:09.041Z,98511.94
2022-12-14T13:34:29.140Z,98501.53
2022-12-14T13:39:56.091Z,98502.50
2022-12-14T13:45:03.127Z,98487.81
2022-12-14T13:50:38.505Z,98479.16
2022-12-14T13:55:34.278Z,98481.03
2022-12-14T14:00:45.253Z,98470.75
2022-12-14T14:05:46.939Z,98469.03
2022-12-14T14:10:54.114Z,98463.84
2022-12-14T14:16:27.574Z,98468.09
2022-12-14T14:21:58.793Z,98466.31
2022-12-14T14:27:17.244Z,98477.69
2022-12-14T14:32:33.624Z,98476.94
2022-12-14T14:37:38.721Z,98484.53
2022-12-14T14:42:49.744Z,98488.88
2022-12-14T14:47:56.977Z,98485.44
2022-12-14T14:53:18.269Z,98495.00
2022-12-14T14:58:27.523Z,98498.41
2022-12-14T15:03:55.665Z,98488.88
2022-12-14T15:09:03.710Z,98488.06
2022-12-14T15:14:16.074Z,98485.56
2022-12-14T15:19:27.874Z,98480.41
2022-12-14T15:24:37.443Z,98477.53
2022-12-14T15:29:39.232Z,98474.28
2022-12-14T15:34:52.043Z,98481.97
2022-12-14T15:40:11.992Z,98470.81
2022-12-14T15:45:18.491Z,98462.31
2022-12-14T15:50:32.719Z,98459.75
2022-12-14T15:55:41.935Z,98459.78
2022-12-14T16:00:48.144Z,98463.25
2022-12-14T16:05:50.379Z,98470.09
2022-12-14T16:10:55.835Z,98463.28
2022-12-14T16:16:00.507Z,98459.00
2022-12-14T16:21:04.067Z,98460.78
2022-12-14T16:26:14.783Z,98462.47
2022-12-14T16:31:21.986Z,98471.75
2022-12-14T16:36:25.578Z,98477.81
2022-12-14T16:41:41.025Z,98478.66
2022-12-14T16:47:03.425Z,98486.41
2022-12-14T16:52:19.888Z,98493.25
2022-12-14T16:57:24.156Z,98478.72
2022-12-14T17:02:30.865Z,98466.72
2022-12-14T17:07:33.492Z,98474.50
2022-12-14T17:12:35.164Z,98475.41
2022-12-14T17:17:36.922Z,98477.06
2022-12-14T17:22:38.651Z,98495.97
2022-12-14T17:27:41.137Z,98485.59
2022-12-14T17:32:43.516Z,98498.53
2022-12-14T17:37:45.242Z,98496.78
2022-12-14T17:42:52.986Z,98491.69
2022-12-14T17:47:55.256Z,98495.16
2022-12-14T17:52:57.043Z,98499.41
2022-12-14T17:58:00.103Z,98508.00
2022-12-14T18:03:03.171Z,98499.44
2022-12-14T18:08:05.229Z,98503.75
2022-12-14T18:13:07.218Z,98507.19
2022-12-14T18:18:09.067Z,98515.75
2022-12-14T18:23:17.943Z,98522.50
2022-12-14T18:28:19.942Z,98525.97
2022-12-14T18:33:24.164Z,98521.72
2022-12-14T18:38:26.553Z,98535.41
2022-12-14T18:43:29.019Z,98529.47
2022-12-14T18:48:31.038Z,98544.03
2022-12-14T18:53:33.873Z,98533.75
2022-12-14T18:58:36.245Z,98531.16
2022-12-14T19:03:38.024Z,98545.75
2022-12-14T19:08:41.347Z,98548.28
2022-12-14T19:13:45.422Z,98557.72
2022-12-14T19:18:47.040Z,98566.28
2022-12-14T19:23:48.645Z,98562.84
2022-12-14T19:28:50.343Z,98567.16
2022-12-14T19:33:51.980Z,98575.69
2022-12-14T19:38:53.655Z,98580.00
2022-12-14T19:43:58.735Z,98587.72
2022-12-14T19:49:00.962Z,98589.44
2022-12-14T19:54:03.827Z,98589.44
2022-12-14T19:59:05.501Z,98590.25
2022-12-14T20:04:07.240Z,98588.56
2022-12-14T20:09:09.979Z,98589.41
2022-12-14T20:14:12.923Z,98592.84
2022-12-14T20:19:14.690Z,98594.56
2022-12-14T20:24:17.437Z,98597.97
2022-12-14T20:29:19.161Z,98597.97
2022-12-14T20:34:21.887Z,98605.63
2022-12-14T20:39:23.907Z,98604.75
2022-12-14T20:44:26.068Z,98610.75
2022-12-14T20:49:30.110Z,98603.88
2022-12-14T20:54:32.133Z,98621.81
2022-12-14T20:59:34.130Z,98623.53
2022-12-14T21:04:36.008Z,98627.69
2022-12-14T21:09:37.962Z,98630.22
2022-12-14T21:14:42.567Z,98628.47
2022-12-14T21:19:44.636Z,98636.09
2022-12-14T21:25:04.224Z,98625.75
2022-12-14T21:30:10.011Z,98632.56
2022-12-14T21:35:13.229Z,98637.69
2022-12-14T21:40:36.894Z,98641.94
2022-12-14T21:45:38.615Z,98634.22
2022-12-14T21:50:42.410Z,98642.66
2022-12-14T21:55:51.245Z,98649.47
2022-12-14T22:00:52.954Z,98656.16
2022-12-14T22:05:54.594Z,98663.78
2022-12-14T22:11:02.529Z,98665.53
2022-12-14T22:16:06.103Z,98686.25
2022-12-14T22:21:07.910Z,98671.63
2022-12-14T22:26:09.776Z,98679.41
2022-12-14T22:31:11.653Z,98676.00
2022-12-14T22:36:15.037Z,98674.19
2022-12-14T22:41:18.360Z,98686.75
2022-12-14T22:46:20.509Z,98689.25
2022-12-14T22:51:23.176Z,98695.94
2022-12-14T22:56:34.478Z,98696.81
2022-12-14T23:01:37.541Z,98705.25
2022-12-14T23:06:40.856Z,98702.69
2022-12-14T23:12:01.020Z,98705.97
2022-12-14T23:17:21.627Z,98712.59
2022-12-14T23:22:41.994Z,98711.63
2022-12-14T23:28:02.478Z,98706.47
2022-12-14T23:33:22.579Z,98706.59
2022-12-14T23:38:42.550Z,98697.06
2022-12-14T23:44:03.315Z,98703.78
2022-12-14T23:49:23.752Z,98704.69
2022-12-14T23:54:44.202Z,98709.44
